sensor_id;sensor_type;location;lat;lon;timestamp;temperature;humidity
15203;DHT22;7702;51.046;5.184;2022-11-14T00:00:13;2.90;99.90
15203;DHT22;7702;51.046;5.184;2022-11-14T00:02:39;2.80;99.90
15203;DHT22;7702;51.046;5.184;2022-11-14T00:05:06;2.70;99.90
15203;DHT22;7702;51.046;5.184;2022-11-14T00:07:33;2.60;99.90
15203;DHT22;7702;51.046;5.184;2022-11-14T00:09:59;2.60;99.90
15203;DHT22;7702;51.046;5.184;2022-11-14T00:12:25;2.60;99.90
15203;DHT22;7702;51.046;5.184;2022-11-14T00:14:51;2.60;99.90
15203;DHT22;7702;51.046;5.184;2022-11-14T00:17:17;2.50;99.90
15203;DHT22;7702;51.046;5.184;2022-11-14T00:19:43;2.50;99.90
15203;DHT22;7702;51.046;5.184;2022-11-14T00:22:09;2.40;99.90
15203;DHT22;7702;51.046;5.184;2022-11-14T00:24:35;2.40;99.90
15203;DHT22;7702;51.046;5.184;2022-11-14T00:27:00;2.40;99.90
15203;DHT22;7702;51.046;5.184;2022-11-14T00:29:26;2.30;99.90
15203;DHT22;7702;51.046;5.184;2022-11-14T00:31:52;2.30;99.90
15203;DHT22;7702;51.046;5.184;2022-11-14T00:34:17;2.30;99.90
15203;DHT22;7702;51.046;5.184;2022-11-14T00:36:43;2.30;99.90
15203;DHT22;7702;51.046;5.184;2022-11-14T00:39:11;2.40;99.90
15203;DHT22;7702;51.046;5.184;2022-11-14T00:41:38;2.40;99.90
15203;DHT22;7702;51.046;5.184;2022-11-14T00:44:04;2.40;99.90
15203;DHT22;7702;51.046;5.184;2022-11-14T00:46:30;2.30;99.90
15203;DHT22;7702;51.046;5.184;2022-11-14T00:48:56;2.30;99.90
15203;DHT22;7702;51.046;5.184;2022-11-14T00:51:21;2.30;99.90
15203;DHT22;7702;51.046;5.184;2022-11-14T00:53:47;2.30;99.90
15203;DHT22;7702;51.046;5.184;2022-11-14T00:56:12;2.30;99.90
15203;DHT22;7702;51.046;5.184;2022-11-14T00:58:38;2.20;99.90
15203;DHT22;7702;51.046;5.184;2022-11-14T01:01:04;2.20;99.90
15203;DHT22;7702;51.046;5.184;2022-11-14T01:03:30;2.20;99.90
15203;DHT22;7702;51.046;5.184;2022-11-14T01:05:55;2.20;99.90
15203;DHT22;7702;51.046;5.184;2022-11-14T01:08:21;2.10;99.90
15203;DHT22;7702;51.046;5.184;2022-11-14T01:10:49;2.10;99.90
15203;DHT22;7702;51.046;5.184;2022-11-14T01:13:16;2.00;99.90
15203;DHT22;7702;51.046;5.184;2022-11-14T01:15:44;2.00;99.90
15203;DHT22;7702;51.046;5.184;2022-11-14T01:18:13;1.90;99.90
15203;DHT22;7702;51.046;5.184;2022-11-14T01:20:41;1.90;99.90
15203;DHT22;7702;51.046;5.184;2022-11-14T01:23:08;1.90;99.90
15203;DHT22;7702;51.046;5.184;2022-11-14T01:25:35;1.80;99.90
15203;DHT22;7702;51.046;5.184;2022-11-14T01:28:05;1.90;99.90
15203;DHT22;7702;51.046;5.184;2022-11-14T01:30:31;1.90;99.90
15203;DHT22;7702;51.046;5.184;2022-11-14T01:32:56;1.80;99.90
15203;DHT22;7702;51.046;5.184;2022-11-14T01:35:22;1.80;99.90
15203;DHT22;7702;51.046;5.184;2022-11-14T01:37:48;1.80;99.90
15203;DHT22;7702;51.046;5.184;2022-11-14T01:40:14;1.70;99.90
15203;DHT22;7702;51.046;5.184;2022-11-14T01:42:40;1.70;99.90
15203;DHT22;7702;51.046;5.184;2022-11-14T01:45:45;1.60;99.90
15203;DHT22;7702;51.046;5.184;2022-11-14T01:48:20;1.60;99.90
15203;DHT22;7702;51.046;5.184;2022-11-14T01:50:56;1.70;99.90
15203;DHT22;7702;51.046;5.184;2022-11-14T01:53:22;1.70;99.90
15203;DHT22;7702;51.046;5.184;2022-11-14T01:55:49;1.70;99.90
15203;DHT22;7702;51.046;5.184;2022-11-14T01:58:15;1.70;99.90
15203;DHT22;7702;51.046;5.184;2022-11-14T02:00:42;1.60;99.90
15203;DHT22;7702;51.046;5.184;2022-11-14T02:03:09;1.50;99.90
15203;DHT22;7702;51.046;5.184;2022-11-14T02:05:36;1.50;99.90
15203;DHT22;7702;51.046;5.184;2022-11-14T02:08:02;1.50;99.90
15203;DHT22;7702;51.046;5.184;2022-11-14T02:10:28;1.40;99.90
15203;DHT22;7702;51.046;5.184;2022-11-14T02:12:54;1.40;99.90
15203;DHT22;7702;51.046;5.184;2022-11-14T02:15:20;1.30;99.90
15203;DHT22;7702;51.046;5.184;2022-11-14T02:17:46;1.40;99.90
15203;DHT22;7702;51.046;5.184;2022-11-14T02:22:39;1.30;99.90
15203;DHT22;7702;51.046;5.184;2022-11-14T02:25:06;1.30;99.90
15203;DHT22;7702;51.046;5.184;2022-11-14T02:27:33;1.30;99.90
15203;DHT22;7702;51.046;5.184;2022-11-14T02:30:08;1.40;99.90
15203;DHT22;7702;51.046;5.184;2022-11-14T02:32:34;1.60;99.90
15203;DHT22;7702;51.046;5.184;2022-11-14T02:35:00;1.70;99.90
15203;DHT22;7702;51.046;5.184;2022-11-14T02:37:26;1.60;99.90
15203;DHT22;7702;51.046;5.184;2022-11-14T02:39:51;1.60;99.90
15203;DHT22;7702;51.046;5.184;2022-11-14T02:42:17;1.50;99.90
15203;DHT22;7702;51.046;5.184;2022-11-14T02:44:43;1.50;99.90
15203;DHT22;7702;51.046;5.184;2022-11-14T02:47:09;1.40;99.90
15203;DHT22;7702;51.046;5.184;2022-11-14T02:49:35;1.40;99.90
15203;DHT22;7702;51.046;5.184;2022-11-14T02:52:00;1.40;99.90
15203;DHT22;7702;51.046;5.184;2022-11-14T02:54:26;1.40;99.90
15203;DHT22;7702;51.046;5.184;2022-11-14T02:56:51;1.30;99.90
15203;DHT22;7702;51.046;5.184;2022-11-14T02:59:17;1.40;99.90
15203;DHT22;7702;51.046;5.184;2022-11-14T03:01:43;1.30;99.90
15203;DHT22;7702;51.046;5.184;2022-11-14T03:04:08;1.30;99.90
15203;DHT22;7702;51.046;5.184;2022-11-14T03:06:34;1.30;99.90
15203;DHT22;7702;51.046;5.184;2022-11-14T03:09:00;1.30;99.90
15203;DHT22;7702;51.046;5.184;2022-11-14T03:11:25;1.30;99.90
15203;DHT22;7702;51.046;5.184;2022-11-14T03:13:51;1.20;99.90
15203;DHT22;7702;51.046;5.184;2022-11-14T03:16:17;1.20;99.90
15203;DHT22;7702;51.046;5.184;2022-11-14T03:18:42;1.20;99.90
15203;DHT22;7702;51.046;5.184;2022-11-14T03:21:10;1.10;99.90
15203;DHT22;7702;51.046;5.184;2022-11-14T03:23:36;1.10;99.90
15203;DHT22;7702;51.046;5.184;2022-11-14T03:26:05;1.20;99.90
15203;DHT22;7702;51.046;5.184;2022-11-14T03:28:31;1.10;99.90
15203;DHT22;7702;51.046;5.184;2022-11-14T03:30:57;1.10;99.90
15203;DHT22;7702;51.046;5.184;2022-11-14T03:33:23;1.00;99.90
15203;DHT22;7702;51.046;5.184;2022-11-14T03:35:49;0.90;99.90
15203;DHT22;7702;51.046;5.184;2022-11-14T03:38:16;0.90;99.90
15203;DHT22;7702;51.046;5.184;2022-11-14T03:40:42;0.90;99.90
15203;DHT22;7702;51.046;5.184;2022-11-14T03:43:07;0.90;99.90
15203;DHT22;7702;51.046;5.184;2022-11-14T03:45:36;1.00;99.90
15203;DHT22;7702;51.046;5.184;2022-11-14T03:48:02;1.10;99.90
15203;DHT22;7702;51.046;5.184;2022-11-14T03:50:27;1.20;99.90
15203;DHT22;7702;51.046;5.184;2022-11-14T03:52:53;1.30;99.90
15203;DHT22;7702;51.046;5.184;2022-11-14T03:55:18;1.30;99.90
15203;DHT22;7702;51.046;5.184;2022-11-14T03:57:44;1.30;99.90
15203;DHT22;7702;51.046;5.184;2022-11-14T04:00:10;1.20;99.90
15203;DHT22;7702;51.046;5.184;2022-11-14T04:02:36;1.20;99.90
15203;DHT22;7702;51.046;5.184;2022-11-14T04:05:02;1.10;99.90
15203;DHT22;7702;51.046;5.184;2022-11-14T04:07:28;1.00;99.90
15203;DHT22;7702;51.046;5.184;2022-11-14T04:09:54;0.90;99.90
15203;DHT22;7702;51.046;5.184;2022-11-14T04:12:19;0.90;99.90
15203;DHT22;7702;51.046;5.184;2022-11-14T04:14:45;0.90;99.90
15203;DHT22;7702;51.046;5.184;2022-11-14T04:17:11;0.90;99.90
15203;DHT22;7702;51.046;5.184;2022-11-14T04:19:36;1.00;99.90
15203;DHT22;7702;51.046;5.184;2022-11-14T04:22:02;1.10;99.90
15203;DHT22;7702;51.046;5.184;2022-11-14T04:24:28;1.10;99.90
15203;DHT22;7702;51.046;5.184;2022-11-14T04:26:53;1.00;99.90
15203;DHT22;7702;51.046;5.184;2022-11-14T04:29:19;1.00;99.90
15203;DHT22;7702;51.046;5.184;2022-11-14T04:31:45;1.10;99.90
15203;DHT22;7702;51.046;5.184;2022-11-14T04:34:10;1.10;99.90
15203;DHT22;7702;51.046;5.184;2022-11-14T04:36:36;1.30;99.90
15203;DHT22;7702;51.046;5.184;2022-11-14T04:39:02;1.40;99.90
15203;DHT22;7702;51.046;5.184;2022-11-14T04:41:28;1.30;99.90
15203;DHT22;7702;51.046;5.184;2022-11-14T04:43:53;1.30;99.90
15203;DHT22;7702;51.046;5.184;2022-11-14T04:46:20;1.30;99.90
15203;DHT22;7702;51.046;5.184;2022-11-14T04:48:45;1.30;99.90
15203;DHT22;7702;51.046;5.184;2022-11-14T04:51:11;1.20;99.90
15203;DHT22;7702;51.046;5.184;2022-11-14T04:53:37;1.20;99.90
15203;DHT22;7702;51.046;5.184;2022-11-14T04:56:02;1.10;99.90
15203;DHT22;7702;51.046;5.184;2022-11-14T04:58:28;1.10;99.90
15203;DHT22;7702;51.046;5.184;2022-11-14T05:00:54;1.10;99.90
15203;DHT22;7702;51.046;5.184;2022-11-14T05:03:22;1.10;99.90
15203;DHT22;7702;51.046;5.184;2022-11-14T05:05:48;1.00;99.90
15203;DHT22;7702;51.046;5.184;2022-11-14T05:08:14;0.90;99.90
15203;DHT22;7702;51.046;5.184;2022-11-14T05:10:43;0.90;99.90
15203;DHT22;7702;51.046;5.184;2022-11-14T05:13:09;0.90;99.90
15203;DHT22;7702;51.046;5.184;2022-11-14T05:15:35;0.90;99.90
15203;DHT22;7702;51.046;5.184;2022-11-14T05:18:01;0.80;99.90
15203;DHT22;7702;51.046;5.184;2022-11-14T05:20:26;0.80;99.90
15203;DHT22;7702;51.046;5.184;2022-11-14T05:22:55;0.80;99.90
15203;DHT22;7702;51.046;5.184;2022-11-14T05:25:23;0.80;99.90
15203;DHT22;7702;51.046;5.184;2022-11-14T05:27:49;0.70;99.90
15203;DHT22;7702;51.046;5.184;2022-11-14T05:30:15;0.70;99.90
15203;DHT22;7702;51.046;5.184;2022-11-14T05:32:40;0.70;99.90
15203;DHT22;7702;51.046;5.184;2022-11-14T05:35:06;0.80;99.90
15203;DHT22;7702;51.046;5.184;2022-11-14T05:37:35;0.90;99.90
15203;DHT22;7702;51.046;5.184;2022-11-14T05:40:02;0.90;99.90
15203;DHT22;7702;51.046;5.184;2022-11-14T05:42:30;0.90;99.90
15203;DHT22;7702;51.046;5.184;2022-11-14T05:44:55;0.90;99.90
15203;DHT22;7702;51.046;5.184;2022-11-14T05:47:21;0.80;99.90
15203;DHT22;7702;51.046;5.184;2022-11-14T05:49:47;0.80;99.90
15203;DHT22;7702;51.046;5.184;2022-11-14T05:52:12;0.80;99.90
15203;DHT22;7702;51.046;5.184;2022-11-14T05:54:38;0.60;99.90
15203;DHT22;7702;51.046;5.184;2022-11-14T05:57:04;0.60;99.90
15203;DHT22;7702;51.046;5.184;2022-11-14T05:59:29;0.60;99.90
15203;DHT22;7702;51.046;5.184;2022-11-14T06:01:55;0.50;99.90
15203;DHT22;7702;51.046;5.184;2022-11-14T06:04:22;0.50;99.90
15203;DHT22;7702;51.046;5.184;2022-11-14T06:06:47;0.50;99.90
15203;DHT22;7702;51.046;5.184;2022-11-14T06:09:13;0.50;99.90
15203;DHT22;7702;51.046;5.184;2022-11-14T06:11:39;0.50;99.90
15203;DHT22;7702;51.046;5.184;2022-11-14T06:14:05;0.50;99.90
15203;DHT22;7702;51.046;5.184;2022-11-14T06:16:31;0.50;99.90
15203;DHT22;7702;51.046;5.184;2022-11-14T06:18:56;0.60;99.90
15203;DHT22;7702;51.046;5.184;2022-11-14T06:21:23;0.50;99.90
15203;DHT22;7702;51.046;5.184;2022-11-14T06:23:50;0.60;99.90
15203;DHT22;7702;51.046;5.184;2022-11-14T06:26:23;0.60;99.90
15203;DHT22;7702;51.046;5.184;2022-11-14T06:28:50;0.60;99.90
15203;DHT22;7702;51.046;5.184;2022-11-14T06:31:17;0.60;99.90
15203;DHT22;7702;51.046;5.184;2022-11-14T06:33:43;0.50;99.90
15203;DHT22;7702;51.046;5.184;2022-11-14T06:36:10;0.50;99.90
15203;DHT22;7702;51.046;5.184;2022-11-14T06:38:37;0.50;99.90
15203;DHT22;7702;51.046;5.184;2022-11-14T06:41:04;0.40;99.90
15203;DHT22;7702;51.046;5.184;2022-11-14T06:43:37;0.40;99.90
15203;DHT22;7702;51.046;5.184;2022-11-14T06:46:05;0.50;99.90
15203;DHT22;7702;51.046;5.184;2022-11-14T06:48:31;0.50;99.90
15203;DHT22;7702;51.046;5.184;2022-11-14T06:50:58;0.40;99.90
15203;DHT22;7702;51.046;5.184;2022-11-14T06:53:24;0.30;99.90
15203;DHT22;7702;51.046;5.184;2022-11-14T06:55:57;0.30;99.90
15203;DHT22;7702;51.046;5.184;2022-11-14T06:58:28;0.20;99.90
15203;DHT22;7702;51.046;5.184;2022-11-14T07:00:54;0.30;99.90
15203;DHT22;7702;51.046;5.184;2022-11-14T07:03:20;0.20;99.90
15203;DHT22;7702;51.046;5.184;2022-11-14T07:05:46;0.30;99.90
15203;DHT22;7702;51.046;5.184;2022-11-14T07:08:13;0.30;99.90
15203;DHT22;7702;51.046;5.184;2022-11-14T07:10:39;0.30;99.90
15203;DHT22;7702;51.046;5.184;2022-11-14T07:13:04;0.40;99.90
15203;DHT22;7702;51.046;5.184;2022-11-14T07:15:30;0.40;99.90
15203;DHT22;7702;51.046;5.184;2022-11-14T07:17:57;0.40;99.90
15203;DHT22;7702;51.046;5.184;2022-11-14T07:20:23;0.40;99.90
15203;DHT22;7702;51.046;5.184;2022-11-14T07:22:48;0.50;99.90
15203;DHT22;7702;51.046;5.184;2022-11-14T07:25:14;0.60;99.90
15203;DHT22;7702;51.046;5.184;2022-11-14T07:27:40;0.70;99.90
15203;DHT22;7702;51.046;5.184;2022-11-14T07:30:06;0.80;99.90
15203;DHT22;7702;51.046;5.184;2022-11-14T07:32:31;0.80;99.90
15203;DHT22;7702;51.046;5.184;2022-11-14T07:34:57;0.80;99.90
15203;DHT22;7702;51.046;5.184;2022-11-14T07:37:23;1.00;99.90
15203;DHT22;7702;51.046;5.184;2022-11-14T07:39:48;1.20;99.90
15203;DHT22;7702;51.046;5.184;2022-11-14T07:42:14;1.30;99.90
15203;DHT22;7702;51.046;5.184;2022-11-14T07:44:40;1.40;99.90
15203;DHT22;7702;51.046;5.184;2022-11-14T07:47:05;1.40;99.90
15203;DHT22;7702;51.046;5.184;2022-11-14T07:49:31;1.50;99.90
15203;DHT22;7702;51.046;5.184;2022-11-14T07:51:57;1.60;99.90
15203;DHT22;7702;51.046;5.184;2022-11-14T07:54:22;1.60;99.90
15203;DHT22;7702;51.046;5.184;2022-11-14T07:56:48;1.70;99.90
15203;DHT22;7702;51.046;5.184;2022-11-14T07:59:14;1.80;99.90
15203;DHT22;7702;51.046;5.184;2022-11-14T08:01:39;1.90;99.90
15203;DHT22;7702;51.046;5.184;2022-11-14T08:04:05;2.00;99.90
15203;DHT22;7702;51.046;5.184;2022-11-14T08:06:30;2.10;99.90
15203;DHT22;7702;51.046;5.184;2022-11-14T08:08:56;2.10;99.90
15203;DHT22;7702;51.046;5.184;2022-11-14T08:11:22;2.30;99.90
15203;DHT22;7702;51.046;5.184;2022-11-14T08:14:06;2.40;99.90
15203;DHT22;7702;51.046;5.184;2022-11-14T08:16:32;2.50;99.90
15203;DHT22;7702;51.046;5.184;2022-11-14T08:18:57;2.60;99.90
15203;DHT22;7702;51.046;5.184;2022-11-14T08:21:23;2.60;99.90
15203;DHT22;7702;51.046;5.184;2022-11-14T08:23:49;2.70;99.90
15203;DHT22;7702;51.046;5.184;2022-11-14T08:26:14;2.70;99.90
15203;DHT22;7702;51.046;5.184;2022-11-14T08:28:40;2.80;99.90
15203;DHT22;7702;51.046;5.184;2022-11-14T08:31:06;2.90;99.90
15203;DHT22;7702;51.046;5.184;2022-11-14T08:33:31;3.00;99.90
15203;DHT22;7702;51.046;5.184;2022-11-14T08:36:01;3.10;99.90
15203;DHT22;7702;51.046;5.184;2022-11-14T08:38:27;3.20;99.90
15203;DHT22;7702;51.046;5.184;2022-11-14T08:40:57;3.40;99.90
15203;DHT22;7702;51.046;5.184;2022-11-14T08:43:23;3.50;99.90
15203;DHT22;7702;51.046;5.184;2022-11-14T08:45:50;3.60;99.90
15203;DHT22;7702;51.046;5.184;2022-11-14T08:48:16;3.70;99.90
15203;DHT22;7702;51.046;5.184;2022-11-14T08:50:42;3.80;99.90
15203;DHT22;7702;51.046;5.184;2022-11-14T08:53:07;3.90;99.90
15203;DHT22;7702;51.046;5.184;2022-11-14T08:55:33;4.00;99.90
15203;DHT22;7702;51.046;5.184;2022-11-14T08:57:59;4.00;99.90
15203;DHT22;7702;51.046;5.184;2022-11-14T09:00:25;4.10;99.90
15203;DHT22;7702;51.046;5.184;2022-11-14T09:02:50;4.20;99.90
15203;DHT22;7702;51.046;5.184;2022-11-14T09:05:16;4.30;99.90
15203;DHT22;7702;51.046;5.184;2022-11-14T09:07:42;4.40;99.90
15203;DHT22;7702;51.046;5.184;2022-11-14T09:10:08;4.50;99.90
15203;DHT22;7702;51.046;5.184;2022-11-14T09:12:34;4.70;99.90
15203;DHT22;7702;51.046;5.184;2022-11-14T09:15:00;4.80;99.90
15203;DHT22;7702;51.046;5.184;2022-11-14T09:17:25;4.90;99.90
15203;DHT22;7702;51.046;5.184;2022-11-14T09:19:51;5.00;99.90
15203;DHT22;7702;51.046;5.184;2022-11-14T09:22:17;5.20;99.90
15203;DHT22;7702;51.046;5.184;2022-11-14T09:24:43;5.30;99.90
15203;DHT22;7702;51.046;5.184;2022-11-14T09:27:12;5.40;99.90
15203;DHT22;7702;51.046;5.184;2022-11-14T09:29:38;5.50;99.90
15203;DHT22;7702;51.046;5.184;2022-11-14T09:32:03;5.70;99.90
15203;DHT22;7702;51.046;5.184;2022-11-14T09:34:29;5.90;99.90
15203;DHT22;7702;51.046;5.184;2022-11-14T09:36:55;6.10;99.90
15203;DHT22;7702;51.046;5.184;2022-11-14T09:39:20;6.40;99.90
15203;DHT22;7702;51.046;5.184;2022-11-14T09:47:13;7.20;99.90
15203;DHT22;7702;51.046;5.184;2022-11-14T09:49:42;7.40;99.90
15203;DHT22;7702;51.046;5.184;2022-11-14T09:52:35;7.40;99.90
15203;DHT22;7702;51.046;5.184;2022-11-14T09:57:36;7.90;99.90
15203;DHT22;7702;51.046;5.184;2022-11-14T10:05:34;8.20;99.90
15203;DHT22;7702;51.046;5.184;2022-11-14T10:27:26;8.80;99.90
15203;DHT22;7702;51.046;5.184;2022-11-14T10:38:00;10.00;99.90
15203;DHT22;7702;51.046;5.184;2022-11-14T10:40:40;9.70;99.90
15203;DHT22;7702;51.046;5.184;2022-11-14T10:46:05;9.70;99.90
15203;DHT22;7702;51.046;5.184;2022-11-14T10:48:49;10.00;99.90
15203;DHT22;7702;51.046;5.184;2022-11-14T10:51:37;10.20;99.90
15203;DHT22;7702;51.046;5.184;2022-11-14T10:56:50;10.00;99.90
15203;DHT22;7702;51.046;5.184;2022-11-14T10:59:16;9.70;99.90
15203;DHT22;7702;51.046;5.184;2022-11-14T11:01:44;9.70;99.90
15203;DHT22;7702;51.046;5.184;2022-11-14T11:04:31;9.90;99.90
15203;DHT22;7702;51.046;5.184;2022-11-14T11:07:18;9.80;99.90
15203;DHT22;7702;51.046;5.184;2022-11-14T11:10:03;9.80;99.90
15203;DHT22;7702;51.046;5.184;2022-11-14T11:12:54;9.90;99.90
15203;DHT22;7702;51.046;5.184;2022-11-14T11:15:27;9.70;99.90
15203;DHT22;7702;51.046;5.184;2022-11-14T11:20:29;9.50;99.90
15203;DHT22;7702;51.046;5.184;2022-11-14T11:25:31;9.60;99.90
15203;DHT22;7702;51.046;5.184;2022-11-14T11:28:18;9.60;99.90
15203;DHT22;7702;51.046;5.184;2022-11-14T11:30:55;9.40;99.90
15203;DHT22;7702;51.046;5.184;2022-11-14T11:35:50;9.20;99.90
15203;DHT22;7702;51.046;5.184;2022-11-14T11:38:18;9.00;99.90
15203;DHT22;7702;51.046;5.184;2022-11-14T11:40:46;8.90;99.90
15203;DHT22;7702;51.046;5.184;2022-11-14T11:45:58;8.70;99.90
15203;DHT22;7702;51.046;5.184;2022-11-14T11:48:36;8.80;99.90
15203;DHT22;7702;51.046;5.184;2022-11-14T11:51:04;8.70;99.90
15203;DHT22;7702;51.046;5.184;2022-11-14T11:53:40;8.70;99.90
15203;DHT22;7702;51.046;5.184;2022-11-14T11:56:20;8.70;99.90
15203;DHT22;7702;51.046;5.184;2022-11-14T11:58:50;8.80;99.90
15203;DHT22;7702;51.046;5.184;2022-11-14T12:01:17;8.80;99.90
15203;DHT22;7702;51.046;5.184;2022-11-14T12:03:48;8.80;99.90
15203;DHT22;7702;51.046;5.184;2022-11-14T12:06:23;8.60;99.90
15203;DHT22;7702;51.046;5.184;2022-11-14T12:11:20;8.50;99.90
15203;DHT22;7702;51.046;5.184;2022-11-14T12:27:33;8.70;99.90
15203;DHT22;7702;51.046;5.184;2022-11-14T12:35:13;8.90;99.90
15203;DHT22;7702;51.046;5.184;2022-11-14T12:37:46;9.00;99.90
15203;DHT22;7702;51.046;5.184;2022-11-14T12:40:34;9.10;99.90
15203;DHT22;7702;51.046;5.184;2022-11-14T12:43:02;9.20;99.90
15203;DHT22;7702;51.046;5.184;2022-11-14T12:48:27;9.50;99.90
15203;DHT22;7702;51.046;5.184;2022-11-14T12:50:54;9.50;99.90
15203;DHT22;7702;51.046;5.184;2022-11-14T12:59:33;9.60;99.90
15203;DHT22;7702;51.046;5.184;2022-11-14T13:13:04;9.40;99.90
15203;DHT22;7702;51.046;5.184;2022-11-14T13:15:52;9.30;99.90
15203;DHT22;7702;51.046;5.184;2022-11-14T13:18:56;9.10;99.90
15203;DHT22;7702;51.046;5.184;2022-11-14T13:25:20;9.10;99.90
15203;DHT22;7702;51.046;5.184;2022-11-14T13:27:46;9.10;99.90
15203;DHT22;7702;51.046;5.184;2022-11-14T13:30:12;9.10;99.90
15203;DHT22;7702;51.046;5.184;2022-11-14T13:52:20;9.00;99.90
15203;DHT22;7702;51.046;5.184;2022-11-14T13:54:48;9.10;99.90
15203;DHT22;7702;51.046;5.184;2022-11-14T13:57:22;9.00;99.90
15203;DHT22;7702;51.046;5.184;2022-11-14T14:02:46;8.80;99.90
15203;DHT22;7702;51.046;5.184;2022-11-14T14:13:50;8.50;99.90
15203;DHT22;7702;51.046;5.184;2022-11-14T14:25:22;8.60;99.90
15203;DHT22;7702;51.046;5.184;2022-11-14T14:28:26;8.60;99.90
15203;DHT22;7702;51.046;5.184;2022-11-14T14:31:13;8.70;99.90
15203;DHT22;7702;51.046;5.184;2022-11-14T14:33:42;8.70;99.90
15203;DHT22;7702;51.046;5.184;2022-11-14T14:36:17;8.60;99.90
15203;DHT22;7702;51.046;5.184;2022-11-14T14:38:43;8.60;99.90
15203;DHT22;7702;51.046;5.184;2022-11-14T14:41:10;8.40;99.90
15203;DHT22;7702;51.046;5.184;2022-11-14T14:43:40;8.40;99.90
15203;DHT22;7702;51.046;5.184;2022-11-14T14:46:07;8.30;99.90
15203;DHT22;7702;51.046;5.184;2022-11-14T14:48:35;8.20;99.90
15203;DHT22;7702;51.046;5.184;2022-11-14T14:51:04;8.20;99.90
15203;DHT22;7702;51.046;5.184;2022-11-14T14:53:34;8.10;99.90
15203;DHT22;7702;51.046;5.184;2022-11-14T14:56:06;8.10;99.90
15203;DHT22;7702;51.046;5.184;2022-11-14T14:58:34;8.20;99.90
15203;DHT22;7702;51.046;5.184;2022-11-14T15:01:10;8.20;99.90
15203;DHT22;7702;51.046;5.184;2022-11-14T15:03:46;8.20;99.90
15203;DHT22;7702;51.046;5.184;2022-11-14T15:08:59;8.20;99.90
15203;DHT22;7702;51.046;5.184;2022-11-14T15:11:26;8.20;99.90
15203;DHT22;7702;51.046;5.184;2022-11-14T15:13:57;8.20;99.90
15203;DHT22;7702;51.046;5.184;2022-11-14T15:16:24;8.30;99.90
15203;DHT22;7702;51.046;5.184;2022-11-14T15:18:51;8.30;99.90
15203;DHT22;7702;51.046;5.184;2022-11-14T15:24:14;8.30;99.90
15203;DHT22;7702;51.046;5.184;2022-11-14T15:26:45;8.10;99.90
15203;DHT22;7702;51.046;5.184;2022-11-14T15:29:16;8.10;99.90
15203;DHT22;7702;51.046;5.184;2022-11-14T15:31:47;8.00;99.90
15203;DHT22;7702;51.046;5.184;2022-11-14T15:39:36;8.00;99.90
15203;DHT22;7702;51.046;5.184;2022-11-14T15:42:27;8.00;99.90
15203;DHT22;7702;51.046;5.184;2022-11-14T15:44:53;7.90;99.90
15203;DHT22;7702;51.046;5.184;2022-11-14T15:47:22;7.90;99.90
15203;DHT22;7702;51.046;5.184;2022-11-14T15:49:56;7.90;99.90
15203;DHT22;7702;51.046;5.184;2022-11-14T15:52:50;7.90;99.90
15203;DHT22;7702;51.046;5.184;2022-11-14T15:55:20;7.80;99.90
15203;DHT22;7702;51.046;5.184;2022-11-14T15:57:46;7.70;99.90
15203;DHT22;7702;51.046;5.184;2022-11-14T16:00:15;7.70;99.90
15203;DHT22;7702;51.046;5.184;2022-11-14T16:02:54;7.70;99.90
15203;DHT22;7702;51.046;5.184;2022-11-14T16:05:28;7.60;99.90
15203;DHT22;7702;51.046;5.184;2022-11-14T16:07:54;7.50;99.90
15203;DHT22;7702;51.046;5.184;2022-11-14T16:10:25;7.50;99.90
15203;DHT22;7702;51.046;5.184;2022-11-14T16:12:51;7.40;99.90
15203;DHT22;7702;51.046;5.184;2022-11-14T16:15:18;7.30;99.90
15203;DHT22;7702;51.046;5.184;2022-11-14T16:17:46;7.20;99.90
15203;DHT22;7702;51.046;5.184;2022-11-14T16:20:15;7.10;99.90
15203;DHT22;7702;51.046;5.184;2022-11-14T16:22:43;7.10;99.90
15203;DHT22;7702;51.046;5.184;2022-11-14T16:27:44;7.00;99.90
15203;DHT22;7702;51.046;5.184;2022-11-14T16:30:12;6.90;99.90
15203;DHT22;7702;51.046;5.184;2022-11-14T16:32:38;6.90;99.90
15203;DHT22;7702;51.046;5.184;2022-11-14T16:35:08;6.80;99.90
15203;DHT22;7702;51.046;5.184;2022-11-14T16:37:36;6.80;99.90
15203;DHT22;7702;51.046;5.184;2022-11-14T16:40:02;6.70;99.90
15203;DHT22;7702;51.046;5.184;2022-11-14T16:42:27;6.60;99.90
15203;DHT22;7702;51.046;5.184;2022-11-14T16:45:01;6.50;99.90
15203;DHT22;7702;51.046;5.184;2022-11-14T16:47:27;6.40;99.90
15203;DHT22;7702;51.046;5.184;2022-11-14T16:49:53;6.40;99.90
15203;DHT22;7702;51.046;5.184;2022-11-14T16:52:18;6.50;99.90
15203;DHT22;7702;51.046;5.184;2022-11-14T16:54:45;6.60;99.90
15203;DHT22;7702;51.046;5.184;2022-11-14T16:57:11;6.60;99.90
15203;DHT22;7702;51.046;5.184;2022-11-14T16:59:36;6.70;99.90
15203;DHT22;7702;51.046;5.184;2022-11-14T17:02:03;6.90;99.90
15203;DHT22;7702;51.046;5.184;2022-11-14T17:04:29;6.90;99.90
15203;DHT22;7702;51.046;5.184;2022-11-14T17:06:54;6.90;99.90
15203;DHT22;7702;51.046;5.184;2022-11-14T17:09:20;7.00;99.90
15203;DHT22;7702;51.046;5.184;2022-11-14T17:11:46;7.00;99.90
15203;DHT22;7702;51.046;5.184;2022-11-14T17:14:11;7.10;99.90
15203;DHT22;7702;51.046;5.184;2022-11-14T17:16:37;7.10;99.90
15203;DHT22;7702;51.046;5.184;2022-11-14T17:19:04;7.20;99.90
15203;DHT22;7702;51.046;5.184;2022-11-14T17:21:29;7.20;99.90
15203;DHT22;7702;51.046;5.184;2022-11-14T17:23:56;7.20;99.90
15203;DHT22;7702;51.046;5.184;2022-11-14T17:26:25;7.30;99.90
15203;DHT22;7702;51.046;5.184;2022-11-14T17:28:51;7.30;99.90
15203;DHT22;7702;51.046;5.184;2022-11-14T17:31:16;7.30;99.90
15203;DHT22;7702;51.046;5.184;2022-11-14T17:33:42;7.30;99.90
15203;DHT22;7702;51.046;5.184;2022-11-14T17:36:09;7.30;99.90
15203;DHT22;7702;51.046;5.184;2022-11-14T17:38:36;7.30;99.90
15203;DHT22;7702;51.046;5.184;2022-11-14T17:41:03;7.30;99.90
15203;DHT22;7702;51.046;5.184;2022-11-14T17:43:35;7.40;99.90
15203;DHT22;7702;51.046;5.184;2022-11-14T17:46:02;7.40;99.90
15203;DHT22;7702;51.046;5.184;2022-11-14T17:48:28;7.40;99.90
15203;DHT22;7702;51.046;5.184;2022-11-14T17:50:54;7.40;99.90
15203;DHT22;7702;51.046;5.184;2022-11-14T17:53:20;7.40;99.90
15203;DHT22;7702;51.046;5.184;2022-11-14T17:55:53;7.40;99.90
15203;DHT22;7702;51.046;5.184;2022-11-14T17:58:19;7.40;99.90
15203;DHT22;7702;51.046;5.184;2022-11-14T18:00:44;7.40;99.90
15203;DHT22;7702;51.046;5.184;2022-11-14T18:03:10;7.40;99.90
15203;DHT22;7702;51.046;5.184;2022-11-14T18:05:36;7.40;99.90
15203;DHT22;7702;51.046;5.184;2022-11-14T18:08:01;7.40;99.90
15203;DHT22;7702;51.046;5.184;2022-11-14T18:10:27;7.40;99.90
15203;DHT22;7702;51.046;5.184;2022-11-14T18:12:53;7.50;99.90
15203;DHT22;7702;51.046;5.184;2022-11-14T18:15:18;7.50;99.90
15203;DHT22;7702;51.046;5.184;2022-11-14T18:17:44;7.50;99.90
15203;DHT22;7702;51.046;5.184;2022-11-14T18:20:10;7.50;99.90
15203;DHT22;7702;51.046;5.184;2022-11-14T18:22:35;7.50;99.90
15203;DHT22;7702;51.046;5.184;2022-11-14T18:25:01;7.50;99.90
15203;DHT22;7702;51.046;5.184;2022-11-14T18:27:27;7.50;99.90
15203;DHT22;7702;51.046;5.184;2022-11-14T18:29:52;7.50;99.90
15203;DHT22;7702;51.046;5.184;2022-11-14T18:32:18;7.50;99.90
15203;DHT22;7702;51.046;5.184;2022-11-14T18:34:43;7.50;99.90
15203;DHT22;7702;51.046;5.184;2022-11-14T18:37:09;7.50;99.90
15203;DHT22;7702;51.046;5.184;2022-11-14T18:39:35;7.60;99.90
15203;DHT22;7702;51.046;5.184;2022-11-14T18:42:01;7.60;99.90
15203;DHT22;7702;51.046;5.184;2022-11-14T18:44:27;7.60;99.90